sensor_id;sensor_type;location;lat;lon;timestamp;pressure;altitude;pressure_sealevel;temperature;humidity
34034;BME280;63481;52.588;22.472;2023-02-18T00:00:34;98852.99;;;7.17;78.49
34034;BME280;63481;52.588;22.472;2023-02-18T00:01:29;98869.59;;;7.18;78.01
34034;BME280;63481;52.588;22.472;2023-02-18T00:02:21;98867.83;;;7.19;77.51
34034;BME280;63481;52.588;22.472;2023-02-18T00:03:14;98869.48;;;7.17;77.51
34034;BME280;63481;52.588;22.472;2023-02-18T00:04:08;98859.73;;;7.09;77.57
34034;BME280;63481;52.588;22.472;2023-02-18T00:05:01;98880.63;;;7.07;77.00
34034;BME280;63481;52.588;22.472;2023-02-18T00:05:54;98859.55;;;7.10;76.90
34034;BME280;63481;52.588;22.472;2023-02-18T00:06:46;98875.10;;;7.05;76.77
34034;BME280;63481;52.588;22.472;2023-02-18T00:07:40;98864.15;;;7.02;76.61
34034;BME280;63481;52.588;22.472;2023-02-18T00:08:32;98893.63;;;7.03;76.29
34034;BME280;63481;52.588;22.472;2023-02-18T00:09:25;98880.55;;;7.07;76.39
34034;BME280;63481;52.588;22.472;2023-02-18T00:10:18;98885.70;;;7.05;76.19
34034;BME280;63481;52.588;22.472;2023-02-18T00:11:11;98892.17;;;7.02;75.86
34034;BME280;63481;52.588;22.472;2023-02-18T00:12:04;98890.16;;;6.97;76.19
34034;BME280;63481;52.588;22.472;2023-02-18T00:12:57;98881.34;;;6.94;75.91
34034;BME280;63481;52.588;22.472;2023-02-18T00:13:53;98895.96;;;6.92;76.18
34034;BME280;63481;52.588;22.472;2023-02-18T00:14:46;98884.16;;;6.89;75.83
34034;BME280;63481;52.588;22.472;2023-02-18T00:15:39;98887.75;;;6.85;76.28
34034;BME280;63481;52.588;22.472;2023-02-18T00:16:32;98893.00;;;6.83;76.35
34034;BME280;63481;52.588;22.472;2023-02-18T00:17:25;98874.23;;;6.86;76.03
34034;BME280;63481;52.588;22.472;2023-02-18T00:18:17;98885.83;;;6.80;76.19
34034;BME280;63481;52.588;22.472;2023-02-18T00:19:13;98873.19;;;6.79;76.11
34034;BME280;63481;52.588;22.472;2023-02-18T00:20:07;98883.02;;;6.74;76.17
34034;BME280;63481;52.588;22.472;2023-02-18T00:21:02;98895.61;;;6.67;76.19
34034;BME280;63481;52.588;22.472;2023-02-18T00:21:55;98885.59;;;6.62;76.43
34034;BME280;63481;52.588;22.472;2023-02-18T00:22:48;98889.53;;;6.57;76.37
34034;BME280;63481;52.588;22.472;2023-02-18T00:23:41;98889.69;;;6.56;76.55
34034;BME280;63481;52.588;22.472;2023-02-18T00:24:34;98897.92;;;6.57;76.39
34034;BME280;63481;52.588;22.472;2023-02-18T00:25:26;98898.27;;;6.54;76.42
34034;BME280;63481;52.588;22.472;2023-02-18T00:26:19;98893.28;;;6.57;76.43
34034;BME280;63481;52.588;22.472;2023-02-18T00:27:12;98913.61;;;6.56;76.08
34034;BME280;63481;52.588;22.472;2023-02-18T00:28:05;98923.30;;;6.62;75.79
34034;BME280;63481;52.588;22.472;2023-02-18T00:28:58;98908.09;;;6.67;75.19
34034;BME280;63481;52.588;22.472;2023-02-18T00:29:52;98910.66;;;6.72;75.10
34034;BME280;63481;52.588;22.472;2023-02-18T00:30:44;98894.98;;;6.71;75.49
34034;BME280;63481;52.588;22.472;2023-02-18T00:31:38;98891.98;;;6.66;74.92
34034;BME280;63481;52.588;22.472;2023-02-18T00:32:33;98895.83;;;6.64;74.75
34034;BME280;63481;52.588;22.472;2023-02-18T00:33:26;98901.44;;;6.62;74.75
34034;BME280;63481;52.588;22.472;2023-02-18T00:34:19;98900.83;;;6.60;74.63
34034;BME280;63481;52.588;22.472;2023-02-18T00:35:11;98899.65;;;6.59;74.56
34034;BME280;63481;52.588;22.472;2023-02-18T00:36:07;98901.37;;;6.58;74.07
34034;BME280;63481;52.588;22.472;2023-02-18T00:37:01;98918.66;;;6.55;74.10
34034;BME280;63481;52.588;22.472;2023-02-18T00:37:54;98918.96;;;6.62;73.50
34034;BME280;63481;52.588;22.472;2023-02-18T00:38:52;98915.23;;;6.71;72.76
34034;BME280;63481;52.588;22.472;2023-02-18T00:39:44;98918.63;;;6.75;72.39
34034;BME280;63481;52.588;22.472;2023-02-18T00:40:39;98925.07;;;6.80;71.79
34034;BME280;63481;52.588;22.472;2023-02-18T00:41:33;98928.38;;;6.85;71.27
34034;BME280;63481;52.588;22.472;2023-02-18T00:42:26;98922.03;;;6.93;70.50
34034;BME280;63481;52.588;22.472;2023-02-18T00:43:19;98920.25;;;6.94;70.35
34034;BME280;63481;52.588;22.472;2023-02-18T00:44:12;98917.47;;;6.95;69.89
34034;BME280;63481;52.588;22.472;2023-02-18T00:45:06;98930.27;;;6.95;69.96
34034;BME280;63481;52.588;22.472;2023-02-18T00:45:59;98933.74;;;6.93;69.87
34034;BME280;63481;52.588;22.472;2023-02-18T00:46:51;98942.49;;;6.90;70.02
34034;BME280;63481;52.588;22.472;2023-02-18T00:47:44;98913.46;;;6.89;70.22
34034;BME280;63481;52.588;22.472;2023-02-18T00:48:38;98918.48;;;6.83;70.08
34034;BME280;63481;52.588;22.472;2023-02-18T00:49:30;98933.84;;;6.80;70.20
34034;BME280;63481;52.588;22.472;2023-02-18T00:50:23;98933.90;;;6.78;69.99
34034;BME280;63481;52.588;22.472;2023-02-18T00:51:16;98927.25;;;6.77;70.14
34034;BME280;63481;52.588;22.472;2023-02-18T00:52:09;98945.73;;;6.76;70.19
34034;BME280;63481;52.588;22.472;2023-02-18T00:53:02;98934.41;;;6.74;70.00
34034;BME280;63481;52.588;22.472;2023-02-18T00:53:55;98946.66;;;6.69;70.10
34034;BME280;63481;52.588;22.472;2023-02-18T00:54:49;98937.77;;;6.66;70.27
34034;BME280;63481;52.588;22.472;2023-02-18T00:55:44;98946.46;;;6.63;70.30
34034;BME280;63481;52.588;22.472;2023-02-18T00:56:37;98937.42;;;6.59;70.42
34034;BME280;63481;52.588;22.472;2023-02-18T00:57:30;98932.25;;;6.52;70.80
34034;BME280;63481;52.588;22.472;2023-02-18T00:58:25;98921.67;;;6.43;71.40
34034;BME280;63481;52.588;22.472;2023-02-18T00:59:18;98928.31;;;6.41;71.57
34034;BME280;63481;52.588;22.472;2023-02-18T01:00:11;98910.13;;;6.39;71.53
34034;BME280;63481;52.588;22.472;2023-02-18T01:01:06;98906.60;;;6.35;71.97
34034;BME280;63481;52.588;22.472;2023-02-18T01:01:59;98905.86;;;6.34;72.02
34034;BME280;63481;52.588;22.472;2023-02-18T01:02:52;98893.20;;;6.35;72.20
34034;BME280;63481;52.588;22.472;2023-02-18T01:03:48;98899.33;;;6.33;72.08
34034;BME280;63481;52.588;22.472;2023-02-18T01:04:41;98904.29;;;6.33;72.27
34034;BME280;63481;52.588;22.472;2023-02-18T01:05:36;98894.36;;;6.32;72.40
34034;BME280;63481;52.588;22.472;2023-02-18T01:06:32;98890.42;;;6.36;72.28
34034;BME280;63481;52.588;22.472;2023-02-18T01:07:25;98902.36;;;6.41;72.22
34034;BME280;63481;52.588;22.472;2023-02-18T01:08:18;98908.72;;;6.44;72.06
34034;BME280;63481;52.588;22.472;2023-02-18T01:09:11;98892.16;;;6.46;71.89
34034;BME280;63481;52.588;22.472;2023-02-18T01:10:05;98897.21;;;6.45;71.96
34034;BME280;63481;52.588;22.472;2023-02-18T01:10:58;98896.42;;;6.47;71.97
34034;BME280;63481;52.588;22.472;2023-02-18T01:11:51;98892.76;;;6.47;71.91
34034;BME280;63481;52.588;22.472;2023-02-18T01:12:44;98893.27;;;6.42;72.03
34034;BME280;63481;52.588;22.472;2023-02-18T01:13:37;98889.21;;;6.42;72.15
34034;BME280;63481;52.588;22.472;2023-02-18T01:14:32;98901.18;;;6.43;72.13
34034;BME280;63481;52.588;22.472;2023-02-18T01:15:25;98909.07;;;6.45;72.34
34034;BME280;63481;52.588;22.472;2023-02-18T01:16:18;98892.59;;;6.47;71.86
34034;BME280;63481;52.588;22.472;2023-02-18T01:17:11;98889.44;;;6.45;72.21
34034;BME280;63481;52.588;22.472;2023-02-18T01:18:05;98899.09;;;6.38;72.92
34034;BME280;63481;52.588;22.472;2023-02-18T01:18:59;98892.46;;;6.34;72.96
34034;BME280;63481;52.588;22.472;2023-02-18T01:19:52;98894.23;;;6.32;73.17
34034;BME280;63481;52.588;22.472;2023-02-18T01:20:45;98892.73;;;6.30;73.16
34034;BME280;63481;52.588;22.472;2023-02-18T01:21:38;98895.93;;;6.26;73.77
34034;BME280;63481;52.588;22.472;2023-02-18T01:22:30;98900.06;;;6.20;74.13
34034;BME280;63481;52.588;22.472;2023-02-18T01:23:23;98887.52;;;6.15;74.80
34034;BME280;63481;52.588;22.472;2023-02-18T01:24:19;98895.03;;;6.12;75.14
34034;BME280;63481;52.588;22.472;2023-02-18T01:25:12;98897.96;;;6.10;75.28
34034;BME280;63481;52.588;22.472;2023-02-18T01:26:09;98905.92;;;6.06;75.90
34034;BME280;63481;52.588;22.472;2023-02-18T01:27:03;98910.90;;;6.02;76.39
34034;BME280;63481;52.588;22.472;2023-02-18T01:27:56;98908.64;;;5.98;76.70
34034;BME280;63481;52.588;22.472;2023-02-18T01:28:48;98901.48;;;5.95;76.91
34034;BME280;63481;52.588;22.472;2023-02-18T01:29:41;98906.46;;;5.94;77.36
34034;BME280;63481;52.588;22.472;2023-02-18T01:30:34;98904.46;;;5.92;77.47
34034;BME280;63481;52.588;22.472;2023-02-18T01:31:27;98906.60;;;5.91;77.91
34034;BME280;63481;52.588;22.472;2023-02-18T01:32:20;98903.78;;;5.92;77.73
34034;BME280;63481;52.588;22.472;2023-02-18T01:33:15;98901.80;;;5.90;78.01
34034;BME280;63481;52.588;22.472;2023-02-18T01:34:09;98914.17;;;5.89;78.16
34034;BME280;63481;52.588;22.472;2023-02-18T01:35:03;98896.03;;;5.87;78.28
34034;BME280;63481;52.588;22.472;2023-02-18T01:35:57;98905.60;;;5.85;78.27
34034;BME280;63481;52.588;22.472;2023-02-18T01:36:50;98923.94;;;5.85;78.22
34034;BME280;63481;52.588;22.472;2023-02-18T01:37:45;98922.95;;;5.95;77.93
34034;BME280;63481;52.588;22.472;2023-02-18T01:38:38;98901.89;;;5.98;77.56
34034;BME280;63481;52.588;22.472;2023-02-18T01:39:32;98908.90;;;5.97;77.68
34034;BME280;63481;52.588;22.472;2023-02-18T01:40:27;98893.66;;;5.96;77.65
34034;BME280;63481;52.588;22.472;2023-02-18T01:41:21;98897.55;;;5.95;77.44
34034;BME280;63481;52.588;22.472;2023-02-18T01:42:21;98884.95;;;5.98;77.19
34034;BME280;63481;52.588;22.472;2023-02-18T01:43:16;98884.09;;;5.99;76.99
34034;BME280;63481;52.588;22.472;2023-02-18T01:44:15;98879.13;;;6.01;76.70
34034;BME280;63481;52.588;22.472;2023-02-18T01:46:25;98872.02;;;6.04;76.30
34034;BME280;63481;52.588;22.472;2023-02-18T01:47:18;98867.23;;;6.03;76.22
34034;BME280;63481;52.588;22.472;2023-02-18T01:48:15;98901.29;;;6.04;76.01
34034;BME280;63481;52.588;22.472;2023-02-18T01:49:10;98878.49;;;6.12;75.72
34034;BME280;63481;52.588;22.472;2023-02-18T01:50:04;98867.17;;;6.13;75.40
34034;BME280;63481;52.588;22.472;2023-02-18T01:51:05;98851.70;;;6.10;75.34
34034;BME280;63481;52.588;22.472;2023-02-18T01:52:31;98870.99;;;6.05;75.04
34034;BME280;63481;52.588;22.472;2023-02-18T01:53:32;98863.41;;;6.00;75.22
34034;BME280;63481;52.588;22.472;2023-02-18T01:54:39;98866.02;;;6.00;75.18
34034;BME280;63481;52.588;22.472;2023-02-18T01:55:34;98850.67;;;5.98;75.09
34034;BME280;63481;52.588;22.472;2023-02-18T01:56:40;98845.82;;;5.91;75.05
34034;BME280;63481;52.588;22.472;2023-02-18T01:57:36;98856.59;;;5.86;74.91
34034;BME280;63481;52.588;22.472;2023-02-18T01:58:31;98872.13;;;5.85;75.03
34034;BME280;63481;52.588;22.472;2023-02-18T01:59:29;98850.23;;;5.87;74.81
34034;BME280;63481;52.588;22.472;2023-02-18T02:00:22;98854.54;;;5.83;75.01
34034;BME280;63481;52.588;22.472;2023-02-18T02:01:15;98869.57;;;5.85;74.69
34034;BME280;63481;52.588;22.472;2023-02-18T02:02:14;98857.51;;;5.83;74.94
34034;BME280;63481;52.588;22.472;2023-02-18T02:03:09;98858.41;;;5.79;74.85
34034;BME280;63481;52.588;22.472;2023-02-18T02:04:02;98871.27;;;5.78;74.82
34034;BME280;63481;52.588;22.472;2023-02-18T02:04:56;98876.27;;;5.79;74.81
34034;BME280;63481;52.588;22.472;2023-02-18T02:05:49;98879.98;;;5.77;74.78
34034;BME280;63481;52.588;22.472;2023-02-18T02:06:42;98851.98;;;5.77;74.70
34034;BME280;63481;52.588;22.472;2023-02-18T02:07:36;98854.12;;;5.75;74.95
34034;BME280;63481;52.588;22.472;2023-02-18T02:08:29;98870.05;;;5.73;74.77
34034;BME280;63481;52.588;22.472;2023-02-18T02:09:25;98875.52;;;5.74;74.66
34034;BME280;63481;52.588;22.472;2023-02-18T02:10:21;98876.05;;;5.74;74.87
34034;BME280;63481;52.588;22.472;2023-02-18T02:11:30;98869.61;;;5.77;74.71
34034;BME280;63481;52.588;22.472;2023-02-18T02:14:35;98886.16;;;5.83;74.48
34034;BME280;63481;52.588;22.472;2023-02-18T02:16:37;98890.08;;;5.84;73.92
34034;BME280;63481;52.588;22.472;2023-02-18T02:19:59;98883.12;;;5.78;74.23
34034;BME280;63481;52.588;22.472;2023-02-18T02:21:10;98881.66;;;5.74;74.19
34034;BME280;63481;52.588;22.472;2023-02-18T02:23:59;98882.30;;;5.80;74.15
34034;BME280;63481;52.588;22.472;2023-02-18T02:30:18;98877.95;;;5.83;73.79
34034;BME280;63481;52.588;22.472;2023-02-18T02:34:35;98884.59;;;5.76;73.56
34034;BME280;63481;52.588;22.472;2023-02-18T02:36:19;98886.02;;;5.77;73.53
34034;BME280;63481;52.588;22.472;2023-02-18T02:37:22;98886.70;;;5.79;73.44
34034;BME280;63481;52.588;22.472;2023-02-18T02:38:27;98886.96;;;5.77;73.56
34034;BME280;63481;52.588;22.472;2023-02-18T02:41:49;98899.63;;;5.85;72.82
34034;BME280;63481;52.588;22.472;2023-02-18T02:44:22;98898.30;;;5.89;72.51
34034;BME280;63481;52.588;22.472;2023-02-18T02:45:50;98888.34;;;5.86;72.65
34034;BME280;63481;52.588;22.472;2023-02-18T02:46:50;98902.45;;;5.83;72.59
34034;BME280;63481;52.588;22.472;2023-02-18T02:47:55;98884.09;;;5.85;72.57
34034;BME280;63481;52.588;22.472;2023-02-18T02:48:57;98903.30;;;5.89;72.38
34034;BME280;63481;52.588;22.472;2023-02-18T02:52:07;98899.48;;;6.00;71.62
34034;BME280;63481;52.588;22.472;2023-02-18T02:53:07;98893.54;;;5.95;71.78
34034;BME280;63481;52.588;22.472;2023-02-18T02:54:25;98893.50;;;5.97;71.76
34034;BME280;63481;52.588;22.472;2023-02-18T02:55:20;98902.59;;;5.96;71.55
34034;BME280;63481;52.588;22.472;2023-02-18T02:56:23;98884.67;;;5.95;71.53
34034;BME280;63481;52.588;22.472;2023-02-18T02:58:30;98912.81;;;5.97;71.22
34034;BME280;63481;52.588;22.472;2023-02-18T02:59:24;98905.27;;;5.96;71.21
34034;BME280;63481;52.588;22.472;2023-02-18T03:00:26;98900.95;;;5.96;71.36
34034;BME280;63481;52.588;22.472;2023-02-18T03:02:41;98896.70;;;5.92;71.82
34034;BME280;63481;52.588;22.472;2023-02-18T03:04:46;98905.51;;;5.88;71.57
34034;BME280;63481;52.588;22.472;2023-02-18T03:08:24;98894.39;;;5.82;72.00
34034;BME280;63481;52.588;22.472;2023-02-18T03:09:19;98887.02;;;5.83;71.72
34034;BME280;63481;52.588;22.472;2023-02-18T03:11:11;98890.85;;;5.81;71.83
34034;BME280;63481;52.588;22.472;2023-02-18T03:16:18;98891.08;;;5.84;71.58
34034;BME280;63481;52.588;22.472;2023-02-18T03:17:29;98887.52;;;5.79;71.62
34034;BME280;63481;52.588;22.472;2023-02-18T03:19:30;98899.52;;;5.74;71.78
34034;BME280;63481;52.588;22.472;2023-02-18T03:20:30;98901.13;;;5.74;71.82
34034;BME280;63481;52.588;22.472;2023-02-18T03:22:25;98891.94;;;5.73;71.87
34034;BME280;63481;52.588;22.472;2023-02-18T03:23:24;98896.02;;;5.70;72.16
34034;BME280;63481;52.588;22.472;2023-02-18T03:24:24;98891.05;;;5.73;71.87
34034;BME280;63481;52.588;22.472;2023-02-18T03:25:19;98894.00;;;5.75;71.76
34034;BME280;63481;52.588;22.472;2023-02-18T03:26:15;98901.98;;;5.71;72.06
34034;BME280;63481;52.588;22.472;2023-02-18T03:27:26;98887.58;;;5.71;71.90
34034;BME280;63481;52.588;22.472;2023-02-18T03:28:22;98897.80;;;5.69;72.04
34034;BME280;63481;52.588;22.472;2023-02-18T03:29:17;98905.10;;;5.67;72.13
34034;BME280;63481;52.588;22.472;2023-02-18T03:30:19;98888.89;;;5.69;72.14
34034;BME280;63481;52.588;22.472;2023-02-18T03:31:19;98898.73;;;5.71;72.16
34034;BME280;63481;52.588;22.472;2023-02-18T03:32:17;98883.35;;;5.69;71.88
34034;BME280;63481;52.588;22.472;2023-02-18T03:33:16;98887.44;;;5.66;72.28
34034;BME280;63481;52.588;22.472;2023-02-18T03:34:12;98902.98;;;5.66;71.94
34034;BME280;63481;52.588;22.472;2023-02-18T03:35:12;98907.91;;;5.67;71.98
34034;BME280;63481;52.588;22.472;2023-02-18T03:36:06;98883.39;;;5.71;71.67
34034;BME280;63481;52.588;22.472;2023-02-18T03:37:00;98881.42;;;5.73;71.46
34034;BME280;63481;52.588;22.472;2023-02-18T03:37:58;98885.29;;;5.76;71.55
34034;BME280;63481;52.588;22.472;2023-02-18T03:38:59;98884.25;;;5.79;71.47
34034;BME280;63481;52.588;22.472;2023-02-18T03:39:56;98892.46;;;5.73;71.61
34034;BME280;63481;52.588;22.472;2023-02-18T03:40:52;98881.00;;;5.70;71.70
34034;BME280;63481;52.588;22.472;2023-02-18T03:41:45;98878.46;;;5.69;71.55
34034;BME280;63481;52.588;22.472;2023-02-18T03:42:38;98927.58;;;5.69;71.48
34034;BME280;63481;52.588;22.472;2023-02-18T03:43:32;98889.41;;;5.71;71.37
34034;BME280;63481;52.588;22.472;2023-02-18T03:44:25;98897.70;;;5.76;71.02
34034;BME280;63481;52.588;22.472;2023-02-18T03:45:18;98898.88;;;5.76;71.11
34034;BME280;63481;52.588;22.472;2023-02-18T03:46:10;98897.91;;;5.74;71.20
34034;BME280;63481;52.588;22.472;2023-02-18T03:47:03;98903.73;;;5.73;71.09
34034;BME280;63481;52.588;22.472;2023-02-18T03:47:56;98889.05;;;5.75;71.11
34034;BME280;63481;52.588;22.472;2023-02-18T03:48:49;98888.48;;;5.72;70.93
34034;BME280;63481;52.588;22.472;2023-02-18T03:49:42;98891.85;;;5.71;71.25
34034;BME280;63481;52.588;22.472;2023-02-18T03:50:35;98889.58;;;5.69;71.51
34034;BME280;63481;52.588;22.472;2023-02-18T03:51:28;98900.41;;;5.69;71.32
34034;BME280;63481;52.588;22.472;2023-02-18T03:52:20;98892.68;;;5.69;71.34
34034;BME280;63481;52.588;22.472;2023-02-18T03:53:13;98890.84;;;5.69;71.45
34034;BME280;63481;52.588;22.472;2023-02-18T03:54:06;98905.10;;;5.66;71.68
34034;BME280;63481;52.588;22.472;2023-02-18T03:54:59;98910.79;;;5.68;71.32
34034;BME280;63481;52.588;22.472;2023-02-18T03:55:52;98920.42;;;5.71;71.26
34034;BME280;63481;52.588;22.472;2023-02-18T03:56:45;98894.81;;;5.72;71.06
34034;BME280;63481;52.588;22.472;2023-02-18T03:57:37;98893.85;;;5.71;71.35
34034;BME280;63481;52.588;22.472;2023-02-18T03:58:30;98896.30;;;5.69;71.05
34034;BME280;63481;52.588;22.472;2023-02-18T03:59:23;98896.95;;;5.70;71.20
34034;BME280;63481;52.588;22.472;2023-02-18T04:00:16;98913.10;;;5.70;71.20
34034;BME280;63481;52.588;22.472;2023-02-18T04:01:09;98897.69;;;5.68;71.30
34034;BME280;63481;52.588;22.472;2023-02-18T04:02:02;98905.38;;;5.66;71.32
34034;BME280;63481;52.588;22.472;2023-02-18T04:02:55;98902.92;;;5.69;71.00
34034;BME280;63481;52.588;22.472;2023-02-18T04:03:48;98890.02;;;5.69;71.18
34034;BME280;63481;52.588;22.472;2023-02-18T04:04:40;98898.50;;;5.66;71.22
34034;BME280;63481;52.588;22.472;2023-02-18T04:05:33;98888.09;;;5.64;71.48
34034;BME280;63481;52.588;22.472;2023-02-18T04:06:26;98908.33;;;5.61;71.42
34034;BME280;63481;52.588;22.472;2023-02-18T04:07:19;98914.81;;;5.60;71.27
34034;BME280;63481;52.588;22.472;2023-02-18T04:08:11;98908.64;;;5.66;70.98
34034;BME280;63481;52.588;22.472;2023-02-18T04:09:04;98893.58;;;5.66;70.93
34034;BME280;63481;52.588;22.472;2023-02-18T04:10:00;98912.73;;;5.66;70.87
34034;BME280;63481;52.588;22.472;2023-02-18T04:10:52;98901.92;;;5.65;71.02
34034;BME280;63481;52.588;22.472;2023-02-18T04:11:45;98892.98;;;5.64;71.15
34034;BME280;63481;52.588;22.472;2023-02-18T04:12:38;98900.87;;;5.62;70.94
34034;BME280;63481;52.588;22.472;2023-02-18T04:13:33;98909.53;;;5.63;71.08
34034;BME280;63481;52.588;22.472;2023-02-18T04:14:26;98935.45;;;5.65;70.62
34034;BME280;63481;52.588;22.472;2023-02-18T04:15:19;98915.95;;;5.69;70.50
34034;BME280;63481;52.588;22.472;2023-02-18T04:16:12;98924.66;;;5.68;70.50
34034;BME280;63481;52.588;22.472;2023-02-18T04:17:05;98904.11;;;5.70;70.45
34034;BME280;63481;52.588;22.472;2023-02-18T04:17:58;98907.14;;;5.66;70.53
34034;BME280;63481;52.588;22.472;2023-02-18T04:18:50;98911.27;;;5.67;70.48
34034;BME280;63481;52.588;22.472;2023-02-18T04:19:43;98912.38;;;5.67;70.35
34034;BME280;63481;52.588;22.472;2023-02-18T04:20:36;98914.09;;;5.67;70.48
34034;BME280;63481;52.588;22.472;2023-02-18T04:21:29;98911.52;;;5.65;70.69
34034;BME280;63481;52.588;22.472;2023-02-18T04:22:21;98919.46;;;5.61;70.66
34034;BME280;63481;52.588;22.472;2023-02-18T04:23:14;98921.09;;;5.65;70.38
34034;BME280;63481;52.588;22.472;2023-02-18T04:24:07;98907.70;;;5.63;70.48
34034;BME280;63481;52.588;22.472;2023-02-18T04:25:00;98911.75;;;5.62;70.53
34034;BME280;63481;52.588;22.472;2023-02-18T04:25:53;98902.05;;;5.62;70.65
34034;BME280;63481;52.588;22.472;2023-02-18T04:26:45;98906.25;;;5.60;70.61
34034;BME280;63481;52.588;22.472;2023-02-18T04:27:38;98908.89;;;5.57;70.69
34034;BME280;63481;52.588;22.472;2023-02-18T04:28:31;98893.95;;;5.58;70.65
34034;BME280;63481;52.588;22.472;2023-02-18T04:29:23;98906.50;;;5.55;70.77
34034;BME280;63481;52.588;22.472;2023-02-18T04:30:17;98909.08;;;5.55;70.88
34034;BME280;63481;52.588;22.472;2023-02-18T04:31:10;98903.20;;;5.55;70.71
34034;BME280;63481;52.588;22.472;2023-02-18T04:32:03;98915.55;;;5.57;70.48
34034;BME280;63481;52.588;22.472;2023-02-18T04:32:56;98915.44;;;5.58;70.48
34034;BME280;63481;52.588;22.472;2023-02-18T04:33:48;98904.39;;;5.57;70.60
34034;BME280;63481;52.588;22.472;2023-02-18T04:34:41;98916.67;;;5.56;70.40
34034;BME280;63481;52.588;22.472;2023-02-18T04:35:34;98912.72;;;5.56;70.58
34034;BME280;63481;52.588;22.472;2023-02-18T04:36:28;98908.73;;;5.56;70.48
34034;BME280;63481;52.588;22.472;2023-02-18T04:37:20;98901.34;;;5.53;70.69
34034;BME280;63481;52.588;22.472;2023-02-18T04:38:13;98905.68;;;5.55;70.28
34034;BME280;63481;52.588;22.472;2023-02-18T04:39:06;98913.77;;;5.59;69.90
34034;BME280;63481;52.588;22.472;2023-02-18T04:39:59;98922.65;;;5.57;70.18
34034;BME280;63481;52.588;22.472;2023-02-18T04:40:52;98926.02;;;5.58;69.89
34034;BME280;63481;52.588;22.472;2023-02-18T04:41:44;98920.73;;;5.58;70.10
34034;BME280;63481;52.588;22.472;2023-02-18T04:42:37;98911.94;;;5.58;69.93
34034;BME280;63481;52.588;22.472;2023-02-18T04:43:29;98919.95;;;5.59;69.82
34034;BME280;63481;52.588;22.472;2023-02-18T04:44:22;98920.48;;;5.59;70.04
34034;BME280;63481;52.588;22.472;2023-02-18T04:45:15;98928.87;;;5.56;70.00
34034;BME280;63481;52.588;22.472;2023-02-18T04:46:07;98909.19;;;5.55;69.98
34034;BME280;63481;52.588;22.472;2023-02-18T04:47:01;98918.42;;;5.52;70.24
34034;BME280;63481;52.588;22.472;2023-02-18T04:47:54;98913.96;;;5.49;70.38
34034;BME280;63481;52.588;22.472;2023-02-18T04:48:46;98917.35;;;5.46;70.46
34034;BME280;63481;52.588;22.472;2023-02-18T04:49:39;98930.48;;;5.46;70.55
34034;BME280;63481;52.588;22.472;2023-02-18T04:50:32;98951.39;;;5.44;70.49
34034;BME280;63481;52.588;22.472;2023-02-18T04:51:25;98937.64;;;5.48;70.24
34034;BME280;63481;52.588;22.472;2023-02-18T04:52:18;98928.96;;;5.47;70.23
34034;BME280;63481;52.588;22.472;2023-02-18T04:53:11;98934.25;;;5.44;70.41
34034;BME280;63481;52.588;22.472;2023-02-18T04:54:06;98929.58;;;5.47;70.05
34034;BME280;63481;52.588;22.472;2023-02-18T04:54:59;98921.66;;;5.48;69.90
34034;BME280;63481;52.588;22.472;2023-02-18T04:55:53;98939.02;;;5.48;69.80
34034;BME280;63481;52.588;22.472;2023-02-18T04:56:45;98931.85;;;5.49;69.70
34034;BME280;63481;52.588;22.472;2023-02-18T04:57:38;98937.23;;;5.47;69.81
34034;BME280;63481;52.588;22.472;2023-02-18T04:58:31;98938.05;;;5.47;69.82
34034;BME280;63481;52.588;22.472;2023-02-18T04:59:24;98947.04;;;5.44;69.92
34034;BME280;63481;52.588;22.472;2023-02-18T05:00:18;98931.30;;;5.41;70.17
34034;BME280;63481;52.588;22.472;2023-02-18T05:01:11;98941.30;;;5.40;70.07
34034;BME280;63481;52.588;22.472;2023-02-18T05:02:04;98931.49;;;5.41;69.91
34034;BME280;63481;52.588;22.472;2023-02-18T05:02:57;98929.23;;;5.40;70.06
34034;BME280;63481;52.588;22.472;2023-02-18T05:03:50;98933.40;;;5.44;69.69
34034;BME280;63481;52.588;22.472;2023-02-18T05:04:42;98939.02;;;5.42;69.82
34034;BME280;63481;52.588;22.472;2023-02-18T05:05:35;98939.30;;;5.41;69.84
34034;BME280;63481;52.588;22.472;2023-02-18T05:06:28;98942.15;;;5.42;69.77
34034;BME280;63481;52.588;22.472;2023-02-18T05:07:21;98956.10;;;5.40;69.76
34034;BME280;63481;52.588;22.472;2023-02-18T05:08:14;98947.94;;;5.38;69.76
34034;BME280;63481;52.588;22.472;2023-02-18T05:09:08;98947.13;;;5.35;69.85
34034;BME280;63481;52.588;22.472;2023-02-18T05:10:01;98965.53;;;5.41;69.47
34034;BME280;63481;52.588;22.472;2023-02-18T05:10:53;98961.14;;;5.43;69.07
34034;BME280;63481;52.588;22.472;2023-02-18T05:11:46;98935.64;;;5.43;69.22
34034;BME280;63481;52.588;22.472;2023-02-18T05:12:39;98942.35;;;5.39;69.58
34034;BME280;63481;52.588;22.472;2023-02-18T05:13:31;98949.64;;;5.37;69.21
34034;BME280;63481;52.588;22.472;2023-02-18T05:14:24;98942.20;;;5.38;69.24
34034;BME280;63481;52.588;22.472;2023-02-18T05:15:17;98940.22;;;5.38;69.18
34034;BME280;63481;52.588;22.472;2023-02-18T05:16:10;98935.16;;;5.37;69.18
34034;BME280;63481;52.588;22.472;2023-02-18T05:17:03;98935.90;;;5.35;69.66
34034;BME280;63481;52.588;22.472;2023-02-18T05:17:55;98938.17;;;5.32;69.43
34034;BME280;63481;52.588;22.472;2023-02-18T05:18:48;98961.89;;;5.31;69.41
34034;BME280;63481;52.588;22.472;2023-02-18T05:19:41;98957.81;;;5.30;69.36
34034;BME280;63481;52.588;22.472;2023-02-18T05:20:34;98941.84;;;5.29;69.37
34034;BME280;63481;52.588;22.472;2023-02-18T05:21:27;98940.30;;;5.27;69.63
34034;BME280;63481;52.588;22.472;2023-02-18T05:22:20;98946.27;;;5.28;69.35
34034;BME280;63481;52.588;22.472;2023-02-18T05:23:12;98953.77;;;5.26;69.51
34034;BME280;63481;52.588;22.472;2023-02-18T05:24:06;98950.27;;;5.26;69.39
34034;BME280;63481;52.588;22.472;2023-02-18T05:25:00;98969.25;;;5.27;69.42
34034;BME280;63481;52.588;22.472;2023-02-18T05:25:53;98950.79;;;5.26;69.34
34034;BME280;63481;52.588;22.472;2023-02-18T05:26:46;98949.70;;;5.21;69.81
34034;BME280;63481;52.588;22.472;2023-02-18T05:27:39;98946.13;;;5.19;69.88